KAKQ/AKQ METAR and TAF weather

Enter ICAO airport designator
Station Type Date Time Source
KAKQ METAR 2018/06/25 02:13 UTC NOAA

KAKQ 250213Z AUTO 00000KT 7SM CLR 23/22 A2995 RMK AO2 LTG DSNT SE-SW T02330222 $


Station Type Date Time Source
KAKQ Decoded METAR 2018/06/25 02:13 UTC NOAA

WAKEFIELD MUNICIPAL AIRPOR, VA, United States (KAKQ) 36-59N 077-00W 33M
Jun 24, 2018 - 10:13 PM EDT / 2018.06.25 0213 UTC
Wind: Calm:0
Visibility: 7 mile(s):0
Sky conditions: clear
Weather: Lightning observed
Temperature: 73.9 F (23.3 C)
Dew Point: 72.0 F (22.2 C)
Relative Humidity: 93%
Pressure (altimeter): 29.95 in. Hg (1014 hPa)
ob: KAKQ 250213Z AUTO 00000KT 7SM CLR 23/22 A2995 RMK AO2 LTG DSNT SE-SW T02330222
cycle: 2

Station Type Date Time Source
KAKQ TAF UTC NOAA

Error!


Example: see airport list